createdAt,value
2022-11-09T00:00:07.981Z,11.70
2022-11-09T00:02:35.158Z,11.70
2022-11-09T00:05:02.643Z,11.70
2022-11-09T00:07:31.633Z,11.70
2022-11-09T00:09:58.719Z,11.70
2022-11-09T00:12:25.552Z,11.70
2022-11-09T00:14:52.305Z,11.60
2022-11-09T00:17:19.066Z,11.60
2022-11-09T00:19:46.073Z,11.60
2022-11-09T00:22:12.869Z,11.60
2022-11-09T00:24:39.574Z,11.60
2022-11-09T00:27:06.289Z,11.60
2022-11-09T00:29:33.335Z,11.70
2022-11-09T00:32:00.100Z,11.70
2022-11-09T00:34:26.903Z,11.70
2022-11-09T00:36:53.972Z,11.70
2022-11-09T00:39:20.977Z,11.70
2022-11-09T00:41:47.687Z,11.70
2022-11-09T00:44:14.756Z,11.70
2022-11-09T00:46:41.727Z,11.70
2022-11-09T00:49:08.480Z,11.60
2022-11-09T00:51:35.280Z,11.60
2022-11-09T00:54:02.217Z,11.60
2022-11-09T00:56:29.113Z,11.60
2022-11-09T00:58:56.226Z,11.60
2022-11-09T01:01:23.430Z,11.60
2022-11-09T01:03:50.509Z,11.50
2022-11-09T01:06:24.006Z,11.50
2022-11-09T01:08:51.617Z,11.50
2022-11-09T01:11:20.838Z,11.40
2022-11-09T01:13:47.969Z,11.40
2022-11-09T01:16:20.787Z,11.30
2022-11-09T01:18:48.029Z,11.30
2022-11-09T01:21:16.303Z,11.30
2022-11-09T01:23:43.462Z,11.40
2022-11-09T01:26:12.732Z,11.30
2022-11-09T01:28:39.621Z,11.20
2022-11-09T01:31:27.980Z,11.20
2022-11-09T01:33:55.341Z,11.20
2022-11-09T01:36:23.709Z,11.20
2022-11-09T01:38:51.423Z,11.20
2022-11-09T01:41:25.991Z,11.20
2022-11-09T01:44:22.110Z,11.20
2022-11-09T01:46:53.970Z,11.20
2022-11-09T01:49:29.655Z,11.20
2022-11-09T01:52:04.333Z,11.30
2022-11-09T01:54:42.341Z,11.20
2022-11-09T01:57:15.850Z,11.20
2022-11-09T01:59:48.691Z,11.20
2022-11-09T02:02:16.332Z,11.20
2022-11-09T02:04:53.900Z,11.10
2022-11-09T02:07:22.328Z,11.20
2022-11-09T02:09:59.834Z,11.20
2022-11-09T02:12:29.371Z,11.10
2022-11-09T02:14:57.601Z,11.20
2022-11-09T02:17:26.969Z,11.20
2022-11-09T02:19:54.092Z,11.10
2022-11-09T02:22:21.064Z,11.20
2022-11-09T02:24:50.778Z,11.20
2022-11-09T02:27:20.225Z,11.20
2022-11-09T02:29:48.872Z,11.20
2022-11-09T02:32:22.826Z,11.20
2022-11-09T02:34:49.666Z,11.20
2022-11-09T02:37:30.043Z,11.20
2022-11-09T02:39:59.504Z,11.20
2022-11-09T02:42:26.384Z,11.20
2022-11-09T02:44:56.519Z,11.20
2022-11-09T02:47:23.347Z,11.30
2022-11-09T02:49:50.386Z,11.30
2022-11-09T02:52:18.336Z,11.30
2022-11-09T02:54:46.368Z,11.30
2022-11-09T02:57:13.739Z,11.30
2022-11-09T02:59:40.503Z,11.30
2022-11-09T03:02:07.910Z,11.30
2022-11-09T03:04:34.949Z,11.40
2022-11-09T03:07:02.576Z,11.30
2022-11-09T03:09:30.487Z,11.40
2022-11-09T03:11:57.859Z,11.40
2022-11-09T03:14:24.823Z,11.40
2022-11-09T03:16:55.387Z,11.30
2022-11-09T03:19:22.693Z,11.40
2022-11-09T03:21:51.878Z,11.40
2022-11-09T03:24:22.782Z,11.50
2022-11-09T03:26:52.215Z,11.50
2022-11-09T03:29:19.196Z,11.50
2022-11-09T03:31:46.214Z,11.60
2022-11-09T03:34:13.540Z,11.50
2022-11-09T03:36:40.284Z,11.60
2022-11-09T03:39:07.065Z,11.60
2022-11-09T03:41:35.078Z,11.70
2022-11-09T03:44:02.083Z,11.60
2022-11-09T03:46:29.509Z,11.60
2022-11-09T03:48:56.341Z,11.60
2022-11-09T03:51:23.867Z,11.60
2022-11-09T03:53:50.610Z,11.60
2022-11-09T03:56:17.830Z,11.60
2022-11-09T03:58:44.664Z,11.60
2022-11-09T04:01:11.896Z,11.60
2022-11-09T04:03:38.695Z,11.60
2022-11-09T04:06:06.086Z,11.60
2022-11-09T04:08:33.094Z,11.60
2022-11-09T04:10:59.829Z,11.60
2022-11-09T04:13:26.700Z,11.60
2022-11-09T04:15:53.435Z,11.60
2022-11-09T04:18:20.687Z,11.60
2022-11-09T04:20:47.680Z,11.60
2022-11-09T04:23:14.531Z,11.60
2022-11-09T04:25:42.333Z,11.60
2022-11-09T04:28:18.369Z,11.70
2022-11-09T04:30:45.369Z,11.70
2022-11-09T04:33:12.192Z,11.70
2022-11-09T04:35:39.036Z,11.70
2022-11-09T04:38:08.426Z,11.70
2022-11-09T04:40:36.009Z,11.70
2022-11-09T04:43:05.053Z,11.70
2022-11-09T04:45:34.473Z,11.70
2022-11-09T04:48:03.076Z,11.70
2022-11-09T04:50:30.988Z,11.70
2022-11-09T04:53:07.854Z,11.70
2022-11-09T04:55:35.130Z,11.70
2022-11-09T04:58:02.157Z,11.70
2022-11-09T05:00:29.086Z,11.80
2022-11-09T05:02:58.729Z,11.80
2022-11-09T05:05:25.680Z,11.80
2022-11-09T05:07:52.490Z,11.80
2022-11-09T05:10:19.239Z,11.80
2022-11-09T05:12:46.233Z,11.80
2022-11-09T05:15:13.193Z,11.90
2022-11-09T05:17:39.974Z,11.80
2022-11-09T05:20:07.288Z,11.80
2022-11-09T05:22:52.880Z,11.80
2022-11-09T05:25:19.909Z,11.80
2022-11-09T05:27:46.727Z,11.80
2022-11-09T05:30:13.842Z,11.80
2022-11-09T05:32:40.671Z,11.80
2022-11-09T05:35:08.287Z,11.80
2022-11-09T05:37:35.144Z,11.80
2022-11-09T05:40:01.910Z,11.80
2022-11-09T05:42:28.667Z,11.90
2022-11-09T05:44:55.896Z,11.90
2022-11-09T05:47:22.901Z,11.90
2022-11-09T05:49:49.989Z,11.90
2022-11-09T05:52:16.795Z,11.90
2022-11-09T05:54:43.594Z,11.90
2022-11-09T05:57:10.657Z,11.90
2022-11-09T05:59:37.562Z,11.90
2022-11-09T06:02:04.512Z,11.90
2022-11-09T06:04:31.373Z,11.90
2022-11-09T06:06:58.450Z,11.90
2022-11-09T06:09:25.656Z,11.90
2022-11-09T06:11:52.459Z,11.90
2022-11-09T06:14:19.164Z,11.90
2022-11-09T06:16:46.616Z,11.80
2022-11-09T06:19:13.386Z,11.80
2022-11-09T06:21:40.218Z,11.90
2022-11-09T06:24:07.224Z,11.90
2022-11-09T06:26:34.004Z,11.90
2022-11-09T06:29:00.950Z,11.90
2022-11-09T06:31:28.293Z,11.90
2022-11-09T06:33:55.121Z,11.90
2022-11-09T06:36:22.218Z,11.90
2022-11-09T06:38:50.553Z,11.90
2022-11-09T06:41:17.799Z,11.80
2022-11-09T06:43:44.853Z,11.90
2022-11-09T06:46:15.038Z,11.90
2022-11-09T06:48:41.767Z,11.90
2022-11-09T06:51:08.593Z,11.90
2022-11-09T06:53:37.830Z,11.90
2022-11-09T06:56:05.706Z,11.90
2022-11-09T06:58:33.011Z,11.90
2022-11-09T07:01:00.031Z,12.00
2022-11-09T07:03:26.888Z,12.00
2022-11-09T07:05:53.674Z,12.00
2022-11-09T07:08:20.689Z,12.00
2022-11-09T07:10:47.612Z,12.00
2022-11-09T07:13:14.360Z,12.00
2022-11-09T07:15:41.245Z,12.00
2022-11-09T07:18:11.383Z,12.00
2022-11-09T07:20:38.162Z,12.00
2022-11-09T07:23:04.879Z,12.00
2022-11-09T07:25:32.175Z,12.10
2022-11-09T07:28:07.600Z,12.00
2022-11-09T07:30:34.897Z,12.10
2022-11-09T07:33:09.320Z,12.10
2022-11-09T07:35:36.775Z,12.10
2022-11-09T07:38:03.605Z,12.10
2022-11-09T07:40:30.804Z,12.20
2022-11-09T07:43:01.592Z,12.10
2022-11-09T07:45:32.783Z,12.10
2022-11-09T07:48:04.986Z,12.10
2022-11-09T07:50:33.177Z,12.10
2022-11-09T07:53:01.072Z,12.20
2022-11-09T07:55:29.810Z,12.20
2022-11-09T07:57:59.072Z,12.20
2022-11-09T08:00:27.824Z,12.20
2022-11-09T08:02:55.071Z,12.20
2022-11-09T08:05:21.957Z,12.20
2022-11-09T08:07:48.748Z,12.10
2022-11-09T08:10:16.029Z,12.20
2022-11-09T08:12:42.734Z,12.20
2022-11-09T08:15:10.086Z,12.30
2022-11-09T08:17:36.855Z,12.30
2022-11-09T08:20:03.934Z,12.20
2022-11-09T08:22:30.711Z,12.40
2022-11-09T08:24:57.451Z,12.40
2022-11-09T08:27:24.318Z,12.50
2022-11-09T08:29:54.198Z,12.50
2022-11-09T08:32:20.930Z,12.50
2022-11-09T08:34:48.722Z,12.50
2022-11-09T08:37:16.782Z,12.60
2022-11-09T08:39:43.530Z,12.60
2022-11-09T08:42:10.250Z,12.70
2022-11-09T08:44:36.981Z,12.80
2022-11-09T08:47:03.757Z,12.80
2022-11-09T08:49:30.564Z,12.90
2022-11-09T08:51:57.278Z,12.90
2022-11-09T08:54:24.094Z,12.90
2022-11-09T08:56:51.085Z,13.00
2022-11-09T08:59:17.843Z,13.00
2022-11-09T09:01:44.711Z,13.00
2022-11-09T09:04:11.482Z,13.10
2022-11-09T09:06:38.247Z,13.20
2022-11-09T09:09:05.034Z,13.20
2022-11-09T09:11:31.789Z,13.30
2022-11-09T09:13:58.547Z,13.50
2022-11-09T09:16:25.555Z,13.60
2022-11-09T09:18:52.284Z,13.70
2022-11-09T09:21:19.259Z,13.90
2022-11-09T09:23:49.280Z,14.00
2022-11-09T09:26:16.924Z,14.20
2022-11-09T09:28:44.097Z,14.20
2022-11-09T09:31:15.640Z,14.30
2022-11-09T09:33:45.505Z,14.30
2022-11-09T09:36:18.213Z,14.40
2022-11-09T09:38:44.908Z,14.40
2022-11-09T09:41:22.200Z,14.40
2022-11-09T09:43:52.691Z,14.50
2022-11-09T09:46:36.334Z,14.50
2022-11-09T09:49:21.472Z,14.50
2022-11-09T09:52:05.818Z,14.60
2022-11-09T09:54:40.020Z,14.70
2022-11-09T09:57:17.155Z,14.80
2022-11-09T09:59:48.314Z,14.80
2022-11-09T10:02:22.720Z,14.90
2022-11-09T10:04:50.229Z,15.10
2022-11-09T10:07:38.799Z,15.20
2022-11-09T10:10:39.861Z,15.30
2022-11-09T10:13:31.100Z,15.30
2022-11-09T10:16:38.943Z,15.30
2022-11-09T10:19:35.885Z,15.30
2022-11-09T10:22:10.263Z,15.20
2022-11-09T10:25:12.852Z,15.20
2022-11-09T10:27:38.683Z,15.20
2022-11-09T10:30:15.175Z,15.10
2022-11-09T10:32:45.634Z,15.10
2022-11-09T10:35:21.475Z,15.00
2022-11-09T10:37:51.347Z,15.10
2022-11-09T10:40:30.439Z,15.10
2022-11-09T10:43:15.953Z,15.00
2022-11-09T10:46:06.870Z,15.00
2022-11-09T10:48:54.163Z,15.10
2022-11-09T10:51:46.583Z,15.40
2022-11-09T10:54:35.331Z,15.40
2022-11-09T10:57:24.956Z,15.50
2022-11-09T11:00:20.878Z,15.60
2022-11-09T11:03:17.737Z,15.80
2022-11-09T11:06:07.215Z,15.70
2022-11-09T11:09:14.545Z,15.70
2022-11-09T11:12:17.900Z,15.70
2022-11-09T11:15:11.886Z,15.70
2022-11-09T11:18:06.155Z,15.70
2022-11-09T11:21:18.464Z,15.70
2022-11-09T11:24:20.726Z,15.60
2022-11-09T11:27:19.562Z,15.60
2022-11-09T11:30:35.021Z,15.70
2022-11-09T11:33:22.267Z,15.90
2022-11-09T11:36:35.564Z,16.00
2022-11-09T11:39:44.024Z,16.00
2022-11-09T11:42:42.548Z,16.10
2022-11-09T11:45:45.382Z,16.20
2022-11-09T11:48:39.872Z,16.30
2022-11-09T11:51:25.071Z,16.20
2022-11-09T11:54:38.423Z,16.10
2022-11-09T11:57:39.886Z,16.20
2022-11-09T12:00:25.318Z,16.20
2022-11-09T12:03:32.602Z,16.20
2022-11-09T12:06:44.184Z,16.20
2022-11-09T12:09:35.864Z,16.20
2022-11-09T12:12:46.391Z,16.30
2022-11-09T12:15:44.691Z,16.20
2022-11-09T12:18:48.345Z,16.20
2022-11-09T12:22:12.743Z,16.30
2022-11-09T12:25:21.920Z,16.30
2022-11-09T12:28:12.781Z,16.20
2022-11-09T12:31:13.230Z,16.00
2022-11-09T12:34:10.081Z,15.90
2022-11-09T12:37:03.265Z,15.90
2022-11-09T12:40:23.295Z,16.00
2022-11-09T12:43:32.475Z,16.00
2022-11-09T12:46:22.524Z,16.00
2022-11-09T12:49:27.243Z,16.10
2022-11-09T12:52:16.367Z,16.10
2022-11-09T12:55:04.229Z,16.10
2022-11-09T12:57:50.171Z,16.10
2022-11-09T13:00:35.731Z,16.20
2022-11-09T13:03:27.534Z,16.20
2022-11-09T13:06:36.757Z,16.20
2022-11-09T13:09:25.647Z,16.20
2022-11-09T13:12:39.240Z,16.20
2022-11-09T13:15:27.504Z,16.10
2022-11-09T13:18:45.720Z,16.00
2022-11-09T13:21:33.279Z,15.80
2022-11-09T13:24:31.250Z,15.80
2022-11-09T13:27:45.331Z,15.70
2022-11-09T13:30:43.989Z,15.60
2022-11-09T13:33:39.279Z,15.50
2022-11-09T13:36:27.573Z,15.60
2022-11-09T13:39:32.291Z,15.50
2022-11-09T13:42:44.077Z,15.50
2022-11-09T13:45:33.010Z,15.60
2022-11-09T13:48:45.075Z,15.50
2022-11-09T13:51:36.815Z,15.50
2022-11-09T13:54:35.622Z,15.60
2022-11-09T13:57:23.836Z,15.60
2022-11-09T14:00:25.786Z,15.60
2022-11-09T14:03:22.274Z,15.50
2022-11-09T14:06:12.660Z,15.40
2022-11-09T14:08:59.156Z,15.40
2022-11-09T14:12:08.903Z,15.50
2022-11-09T14:15:32.343Z,15.40
2022-11-09T14:18:26.586Z,15.40
2022-11-09T14:21:11.722Z,15.30
2022-11-09T14:24:03.553Z,15.40
2022-11-09T14:27:11.041Z,15.30
2022-11-09T14:30:03.633Z,15.20
2022-11-09T14:32:51.703Z,15.20
2022-11-09T14:35:39.146Z,15.10
2022-11-09T14:38:29.532Z,15.10
2022-11-09T14:41:25.020Z,15.10
2022-11-09T14:44:27.075Z,15.00
2022-11-09T14:47:17.046Z,15.00
2022-11-09T14:50:03.069Z,14.90
2022-11-09T14:52:51.305Z,14.90
2022-11-09T14:55:41.365Z,14.80
2022-11-09T14:58:28.526Z,14.70
2022-11-09T15:01:24.160Z,14.70
2022-11-09T15:04:14.501Z,14.70
2022-11-09T15:07:03.011Z,14.70
2022-11-09T15:09:56.565Z,14.60
2022-11-09T15:12:48.831Z,14.60
2022-11-09T15:15:35.676Z,14.50
2022-11-09T15:18:34.203Z,14.50
2022-11-09T15:21:26.177Z,14.50
2022-11-09T15:24:11.959Z,14.50
2022-11-09T15:26:57.629Z,14.40
2022-11-09T15:29:44.067Z,14.40
2022-11-09T15:32:37.646Z,14.40
2022-11-09T15:35:23.905Z,14.30
2022-11-09T15:38:30.254Z,14.30
2022-11-09T15:41:20.795Z,14.20
2022-11-09T15:44:06.885Z,14.10
2022-11-09T15:46:53.913Z,14.00
2022-11-09T15:49:39.452Z,14.00
2022-11-09T15:52:25.202Z,14.00
2022-11-09T15:55:21.876Z,14.00
2022-11-09T15:58:09.158Z,13.90
2022-11-09T16:00:55.058Z,14.00
2022-11-09T16:03:40.717Z,13.90
2022-11-09T16:06:26.877Z,13.90
2022-11-09T16:09:12.134Z,13.90
2022-11-09T16:11:57.587Z,13.80
2022-11-09T16:14:43.001Z,13.80
2022-11-09T16:17:29.508Z,13.80
2022-11-09T16:20:15.031Z,13.80
2022-11-09T16:23:00.582Z,13.80
2022-11-09T16:25:46.088Z,13.80
2022-11-09T16:28:31.148Z,13.80
2022-11-09T16:31:19.135Z,13.70
2022-11-09T16:34:10.968Z,13.60
2022-11-09T16:36:57.076Z,13.60
2022-11-09T16:39:42.838Z,13.70
2022-11-09T16:42:28.118Z,13.60
2022-11-09T16:45:16.106Z,13.60
2022-11-09T16:48:04.591Z,13.60
2022-11-09T16:50:50.336Z,13.60
2022-11-09T16:53:35.505Z,13.60
2022-11-09T16:56:21.252Z,13.50
2022-11-09T16:59:06.675Z,13.60
2022-11-09T17:01:54.172Z,13.50
2022-11-09T17:04:39.649Z,13.50
2022-11-09T17:07:25.225Z,13.50
2022-11-09T17:10:11.608Z,13.50
2022-11-09T17:12:56.978Z,13.50
2022-11-09T17:15:47.177Z,13.50
2022-11-09T17:18:33.054Z,13.50
2022-11-09T17:21:18.806Z,13.50
2022-11-09T17:24:06.304Z,13.50
2022-11-09T17:26:51.550Z,13.50
2022-11-09T17:29:37.870Z,13.50
2022-11-09T17:32:25.982Z,13.60
2022-11-09T17:35:11.393Z,13.60
2022-11-09T17:37:57.760Z,13.60
2022-11-09T17:40:43.269Z,13.60
2022-11-09T17:43:30.638Z,13.50
2022-11-09T17:46:19.953Z,13.50
2022-11-09T17:49:09.781Z,13.50
2022-11-09T17:51:55.569Z,13.50
2022-11-09T17:54:40.939Z,13.40
2022-11-09T17:57:26.238Z,13.40
2022-11-09T18:00:12.192Z,13.40
2022-11-09T18:02:57.838Z,13.20
2022-11-09T18:05:44.214Z,12.90
2022-11-09T18:08:29.727Z,12.70
2022-11-09T18:11:16.699Z,12.50
2022-11-09T18:14:02.059Z,12.50
2022-11-09T18:16:47.612Z,12.30
2022-11-09T18:19:33.229Z,12.20
2022-11-09T18:22:18.259Z,12.10
2022-11-09T18:25:04.005Z,12.10
2022-11-09T18:27:49.149Z,12.10
2022-11-09T18:30:34.978Z,12.10
2022-11-09T18:33:23.595Z,12.10
2022-11-09T18:36:13.102Z,12.10
2022-11-09T18:38:59.034Z,12.10
2022-11-09T18:41:44.432Z,12.20
2022-11-09T18:44:29.807Z,12.20
2022-11-09T18:47:15.162Z,12.20
2022-11-09T18:50:00.383Z,12.10
2022-11-09T18:52:45.868Z,12.10
2022-11-09T18:55:31.127Z,12.10
2022-11-09T18:58:17.602Z,12.10
2022-11-09T19:01:06.660Z,12.10
2022-11-09T19:03:57.712Z,12.10
2022-11-09T19:06:44.976Z,12.10
2022-11-09T19:09:38.678Z,12.10
2022-11-09T19:12:25.284Z,12.10
2022-11-09T19:15:10.874Z,12.10
2022-11-09T19:17:56.223Z,12.10
2022-11-09T19:20:41.930Z,12.10
2022-11-09T19:23:33.862Z,12.10
2022-11-09T19:26:23.747Z,12.10
2022-11-09T19:29:14.261Z,12.10
2022-11-09T19:31:59.567Z,12.10
2022-11-09T19:34:46.153Z,12.10
2022-11-09T19:37:31.465Z,12.10
2022-11-09T19:40:17.098Z,12.10
2022-11-09T19:43:02.466Z,12.00
2022-11-09T19:45:47.926Z,12.10
2022-11-09T19:48:35.184Z,12.10
2022-11-09T19:51:20.596Z,12.00
2022-11-09T19:54:07.358Z,12.00
2022-11-09T19:56:52.572Z,12.10
2022-11-09T19:59:37.808Z,12.10
2022-11-09T20:02:24.028Z,12.20
2022-11-09T20:05:09.824Z,12.10
2022-11-09T20:07:55.127Z,12.10
2022-11-09T20:10:41.103Z,12.20
2022-11-09T20:13:26.406Z,12.20
2022-11-09T20:16:11.923Z,12.20
2022-11-09T20:18:57.167Z,12.20
2022-11-09T20:21:44.328Z,12.20
2022-11-09T20:24:29.923Z,12.20
2022-11-09T20:27:15.975Z,12.10
2022-11-09T20:30:01.342Z,12.10
2022-11-09T20:32:46.489Z,12.10
2022-11-09T20:35:32.493Z,12.20
2022-11-09T20:38:18.235Z,12.10
2022-11-09T20:41:05.927Z,12.10
2022-11-09T20:43:51.441Z,12.10
2022-11-09T20:46:37.158Z,12.20
2022-11-09T20:49:23.408Z,12.10
2022-11-09T20:52:09.155Z,12.10
2022-11-09T20:54:54.398Z,12.10
2022-11-09T20:57:39.844Z,12.10
2022-11-09T21:00:25.021Z,12.10
2022-11-09T21:03:10.353Z,12.10
2022-11-09T21:05:59.209Z,12.10
2022-11-09T21:08:50.059Z,12.00
2022-11-09T21:11:35.521Z,12.00
2022-11-09T21:14:21.017Z,11.90
2022-11-09T21:17:06.293Z,11.90
2022-11-09T21:19:51.921Z,11.80
2022-11-09T21:22:55.780Z,11.80
2022-11-09T21:26:01.454Z,11.70
2022-11-09T21:29:05.119Z,11.70
2022-11-09T21:31:53.549Z,11.60
2022-11-09T21:34:39.235Z,11.60
2022-11-09T21:37:24.604Z,11.50
2022-11-09T21:40:10.052Z,11.40
2022-11-09T21:42:56.189Z,11.40
2022-11-09T21:45:42.395Z,11.40
2022-11-09T21:48:27.719Z,11.40
2022-11-09T21:51:13.216Z,11.40
2022-11-09T21:53:58.486Z,11.30
2022-11-09T21:56:44.074Z,11.30
2022-11-09T21:59:29.154Z,11.30
2022-11-09T22:02:14.598Z,11.20
2022-11-09T22:05:00.152Z,11.20
2022-11-09T22:07:45.700Z,11.20
2022-11-09T22:10:30.963Z,11.10
2022-11-09T22:13:35.246Z,11.10
2022-11-09T22:16:21.784Z,11.00
2022-11-09T22:19:25.787Z,11.00
2022-11-09T22:22:11.542Z,11.00
2022-11-09T22:24:57.225Z,11.00
2022-11-09T22:27:42.716Z,11.00
2022-11-09T22:30:28.074Z,11.00
2022-11-09T22:33:14.547Z,10.90
2022-11-09T22:36:02.161Z,10.90
2022-11-09T22:38:47.504Z,10.90
2022-11-09T22:41:32.915Z,10.80
2022-11-09T22:44:19.455Z,10.80
2022-11-09T22:47:04.784Z,10.80
2022-11-09T22:49:50.265Z,10.70
2022-11-09T22:52:35.531Z,10.70
2022-11-09T22:55:21.216Z,10.80
2022-11-09T22:58:06.485Z,10.80
2022-11-09T23:00:52.789Z,10.80
2022-11-09T23:03:41.102Z,10.80
2022-11-09T23:06:26.800Z,10.80
2022-11-09T23:09:11.887Z,10.90
2022-11-09T23:11:57.689Z,10.80
2022-11-09T23:15:02.162Z,10.80
2022-11-09T23:18:06.349Z,10.70
2022-11-09T23:20:51.822Z,10.60
2022-11-09T23:23:37.977Z,10.70
2022-11-09T23:26:24.665Z,10.80
2022-11-09T23:29:10.031Z,10.80
2022-11-09T23:31:57.154Z,10.80
2022-11-09T23:34:42.516Z,10.90
2022-11-09T23:37:27.933Z,10.90
2022-11-09T23:40:13.850Z,10.90
2022-11-09T23:43:07.673Z,11.00
2022-11-09T23:45:53.185Z,11.00
2022-11-09T23:48:39.276Z,11.00
2022-11-09T23:51:24.578Z,11.00
2022-11-09T23:54:10.059Z,11.00
2022-11-09T23:56:55.172Z,11.00
2022-11-09T23:59:40.716Z,11.00
